Lebec, California
Current Conditions -  °F | °C
As of 10:48 AM on Sunday 21 Dec 2014 (Local Time) from KSDB Reporting Station
Few Clouds Few Clouds  
Wind Chill: 50°   Ceiling: Unl
Heat Index: 50°   Visibility: 10mi
Dew Point: 43°   Wind: 44mph
Humidity: 77%   Direction: 350°N
Pressure: 30.22"   Gusts: 55mph
Location:  34.84°N, 118.87°W
Report Text: KSDB 211848Z AUTO 35038G48KT 10SM FEW003 10/06 A3022 RMK AO2 PK WND 35050/1751 SLP208 T01000061 PWINO $
Loading
Personal Weather Stations






























Interactive Weather Map New forecast layout! Learn more

10-Day Weather Forecast

Advertisements
Track Severe Weather on mobile